Southport, FL (32409)

3:55 AM CDT on June 30, 2015 (GMT -0500)
White Western Lake | | Change Station
CLOSE
Current Station
Personal Weather Station
Location: Southport, FL
Elevation: 28 ft
Nearby Weather Stations

Elev 28 ft 30.40 °N, 85.70 °W | Updated 6 seconds ago

Partly Cloudy
Partly Cloudy
75.4 °F
Feels Like 77 °F
N
0.0
Wind Variable Wind from ESE
Gusts 0.0 mph

Today
High -- | Low -- °F
--% Chance of Precip.
Yesterday
High -- | Low -- °F
Precip. -- in
5:43 AM 7:48 PM
Waxing Gibbous, 96% visible
Pressure 30.06 in
Visibility 10.0 miles
Clouds Clear
Heat Index 77 °F
Dew Point 63 °F
Humidity 66%
Rainfall 0.00 in
Snow Depth Not available.
UV 0 out of 12
Pollen 3.10 out of 12
Air Quality Not available.
Flu Activity Sporadic
METAR KECP 300853Z AUTO 23005KT 10SM VCTS CLR 27/24 A3003 RMK AO2 LTG DSNT E SLP180 T02670244 58001

More Conditions Fewer Conditions

Pressure 30.06 in
Visibility 10.0 miles
Clouds Clear
Heat Index 77 °F
Dew Point 63 °F
Humidity 66%
Rainfall 0.00 in
Snow Depth Not available.
UV 0 out of 12
Pollen 3.10 out of 12
Air Quality Not available.
Flu Activity Sporadic
METAR KECP 300853Z AUTO 23005KT 10SM VCTS CLR 27/24 A3003 RMK AO2 LTG DSNT E SLP180 T02670244 58001

More Conditions Fewer Conditions

10-Day Weather Forecast

×

Almanac

Astronomy

Jun. 30, 2015 Rise Set
Actual Time
Civil Twilight
Nautical Twilight
Astronomical Twilight
Moon
Length of Visible Light
Length of Day
Tomorrow will be .
, % of the Moon is Illuminated

Today's Extremes

State Highs State Lows

Community

WunderPhotos

Upload Photos

1,833,976 photos uploaded!

WunderBlogs® & News

Nearby

Air Quality

  Air Quality AQ Index Pollutant
Not available.

Snow Depth

Station Depth Elevation

Earthquake Activity

City Distance Mag. Time & Date
Minimum magnitude displayed is 2.5.

Coastal Water Temperatures

Place Temperature

Stations

Nearby Weather Stations

Station Location Temp. Windchill Dew Point Humidity Wind Precip. Elev Updated Type